Big Bear Station Historical Data
Daily Summary for March 18, 2019 Units:  Metric    English   Both
Next Day »
Daily Weekly Monthly Yearly Custom
  High: Low: Average:
Temperature: 13 °C -3.4 °C 3.8 °C
Dew Point: 1.9 °C -4.2 °C -1.1 °C
Humidity: 96% 39% 75%
Wind Speed: 11.7km/h 0km/h 1.1km/h
Wind Gust: -1607.7km/h - -
Wind- - West
Pressure: 797.4 hPa 795 hPa -
Precipitation: 0 mm    
Historical Graphs
 
 
Tabular Data for March 18, 2019
Time Temperature Dew Point Pressure Wind Wind Speed Wind Gust Humidity Rainfall Rate (Hourly)
00:01 -0.9 °C -2.6 °C 797.4 hPa Calm   -1607.7 km/h 88% 0 mm
00:16 -0.9 °C -2.6 °C 797.4 hPa Calm   -1607.7 km/h 88% 0 mm
00:32 -1.2 °C -2.8 °C 797.4 hPa Calm   -1607.7 km/h 89% 0 mm
00:47 -1.1 °C -2.6 °C 797.4 hPa Calm   -1607.7 km/h 90% 0 mm
01:02 -1.3 °C -2.7 °C 797.1 hPa Calm   -1607.7 km/h 90% 0 mm
01:17 -1.5 °C -2.8 °C 797.1 hPa Calm   -1607.7 km/h 91% 0 mm
01:32 -1.6 °C -2.9 °C 797.1 hPa Calm   -1607.7 km/h 91% 0 mm
01:48 -1.8 °C -2.9 °C 797.1 hPa Calm   -1607.7 km/h 92% 0 mm
02:03 -1.8 °C -2.9 °C 797.1 hPa Calm   -1607.7 km/h 92% 0 mm
02:18 -1.9 °C -3 °C 797.1 hPa Calm   -1607.7 km/h 92% 0 mm
02:33 -2.1 °C -3.2 °C 796.7 hPa Calm   -1607.7 km/h 92% 0 mm
02:49 -2.2 °C -3.2 °C 796.7 hPa Calm   -1607.7 km/h 93% 0 mm
03:04 -2.3 °C -3.3 °C 796.4 hPa Calm   -1607.7 km/h 93% 0 mm
03:19 -2.5 °C -3.3 °C 796 hPa Calm   -1607.7 km/h 94% 0 mm
03:35 -2.5 °C -3.2 °C 796 hPa Calm   -1607.7 km/h 95% 0 mm
03:50 -2.7 °C -3.4 °C 796 hPa Calm   -1607.7 km/h 95% 0 mm
04:05 -2.6 °C -3.2 °C 795.7 hPa Calm   -1607.7 km/h 96% 0 mm
04:20 -2.9 °C -3.4 °C 795.7 hPa Calm   -1607.7 km/h 96% 0 mm
04:36 -2.8 °C -3.3 °C 795.7 hPa Calm   -1607.7 km/h 96% 0 mm
04:51 -2.8 °C -3.3 °C 795.7 hPa Calm   -1607.7 km/h 96% 0 mm
05:06 -2.9 °C -3.4 °C 795.7 hPa Calm   -1607.7 km/h 96% 0 mm
05:21 -3.1 °C -3.7 °C 795.7 hPa Calm   -1607.7 km/h 96% 0 mm
05:36 -3 °C -3.6 °C 796 hPa Calm   -1607.7 km/h 96% 0 mm
05:52 -3.2 °C -3.8 °C 795.7 hPa Calm   -1607.7 km/h 96% 0 mm
06:07 -3.1 °C -3.7 °C 796 hPa Calm   -1607.7 km/h 96% 0 mm
06:23 -3.2 °C -3.8 °C 796 hPa Calm   -1607.7 km/h 96% 0 mm
06:38 -3.3 °C -3.8 °C 796 hPa Calm   -1607.7 km/h 96% 0 mm
06:53 -3.2 °C -3.9 °C 796.4 hPa Calm   -1607.7 km/h 95% 0 mm
07:08 -3.4 °C -4.1 °C 796.4 hPa Calm   -1607.7 km/h 95% 0 mm
07:23 -3.2 °C -4.2 °C 796.4 hPa Calm   -1607.7 km/h 93% 0 mm
07:39 -3.4 °C -4.2 °C 796.4 hPa Calm   -1607.7 km/h 94% 0 mm
07:54 -3.1 °C -4.1 °C 796.7 hPa Calm   -1607.7 km/h 93% 0 mm
08:09 -2.4 °C -3.1 °C 796.7 hPa Calm   -1607.7 km/h 95% 0 mm
08:25 -1.4 °C -2.4 °C 796.7 hPa Calm   -1607.7 km/h 93% 0 mm
08:40 -1 °C -2 °C 796.7 hPa Calm   -1607.7 km/h 93% 0 mm
08:55 -0.9 °C -2.3 °C 796.7 hPa Calm   -1607.7 km/h 90% 0 mm
09:11 -0.5 °C -1.8 °C 796.7 hPa Calm   -1607.7 km/h 91% 0 mm
09:26 0 °C -1.3 °C 796.7 hPa Calm   -1607.7 km/h 91% 0 mm
09:41 1 °C -0.4 °C 796.7 hPa Calm   -1607.7 km/h 90% 0 mm
09:56 2.2 °C 0.3 °C 796.7 hPa Calm   -1607.7 km/h 87% 0 mm
10:11 3.6 °C -0.6 °C 796.7 hPa WNW 1.8 km/h -1607.7 km/h 74% 0 mm
10:27 5.2 °C -3.3 °C 796.7 hPa Calm   -1607.7 km/h 54% 0 mm
10:42 6.9 °C 0.8 °C 796.7 hPa Calm   -1607.7 km/h 65% 0 mm
10:57 9.2 °C -1.8 °C 796.7 hPa Calm   -1607.7 km/h 46% 0 mm
11:12 10.6 °C -2.4 °C 796.7 hPa NW 5.1 km/h -1607.7 km/h 40% 0 mm
11:27 11 °C -2.4 °C 796.7 hPa Calm   -1607.7 km/h 39% 0 mm
11:43 11.2 °C -2.2 °C 796.4 hPa NW 6.8 km/h -1607.7 km/h 39% 0 mm
11:58 11.3 °C -1.8 °C 796.4 hPa NNW 6 km/h -1607.7 km/h 40% 0 mm
12:14 12.6 °C -1 °C 796.7 hPa Calm   -1607.7 km/h 39% 0 mm
12:29 13 °C 0.1 °C 796.4 hPa NNW 6 km/h -1607.7 km/h 41% 0 mm
12:44 12.1 °C 0.5 °C 796.4 hPa NW 6.8 km/h -1607.7 km/h 45% 0 mm
13:00 12.5 °C -0.1 °C 796.4 hPa Calm   -1607.7 km/h 42% 0 mm
13:15 12.5 °C -0.4 °C 796 hPa NE 3.5 km/h -1607.7 km/h 41% 0 mm
13:31 12.5 °C 0.3 °C 796 hPa NW 4.3 km/h -1607.7 km/h 43% 0 mm
13:46 12.6 °C 0.7 °C 796 hPa SSE 5.1 km/h -1607.7 km/h 44% 0 mm
14:01 12.4 °C 0.2 °C 796 hPa NNE 3.5 km/h -1607.7 km/h 43% 0 mm
14:17 12.7 °C 0.8 °C 795.7 hPa West 3.5 km/h -1607.7 km/h 44% 0 mm
14:32 12.4 °C 1.4 °C 795.7 hPa NW 8.5 km/h -1607.7 km/h 47% 0 mm
14:47 12.9 °C 1.2 °C 795.7 hPa West 7.6 km/h -1607.7 km/h 45% 0 mm
15:02 12.2 °C 0.9 °C 795.4 hPa WNW 6 km/h -1607.7 km/h 46% 0 mm
15:18 12.7 °C 1.4 °C 795.4 hPa WNW 9.3 km/h -1607.7 km/h 46% 0 mm
15:33 12.5 °C 1.2 °C 795.4 hPa WNW 11.7 km/h -1607.7 km/h 46% 0 mm
15:48 12.4 °C 1.4 °C 795.4 hPa Calm   -1607.7 km/h 47% 0 mm
16:04 12.5 °C 1.2 °C 795.4 hPa Calm   -1607.7 km/h 46% 0 mm
16:19 12.7 °C 1.7 °C 795.4 hPa Calm   -1607.7 km/h 47% 0 mm
16:34 11.1 °C 0.8 °C 795.4 hPa Calm   -1607.7 km/h 49% 0 mm
16:49 11.4 °C 1.1 °C 795.4 hPa North 10.9 km/h -1607.7 km/h 49% 0 mm
17:04 11.6 °C 0.9 °C 795 hPa Calm   -1607.7 km/h 48% 0 mm
17:20 11.2 °C 1.2 °C 795.4 hPa Calm   -1607.7 km/h 50% 0 mm
17:35 10.9 °C 0.9 °C 795.4 hPa Calm   -1607.7 km/h 50% 0 mm
17:50 10.5 °C 1.1 °C 795.4 hPa Calm   -1607.7 km/h 52% 0 mm
18:05 10 °C 1.1 °C 795.4 hPa Calm   -1607.7 km/h 54% 0 mm
18:21 9.2 °C 1.4 °C 795.4 hPa Calm   -1607.7 km/h 58% 0 mm
18:36 8.6 °C 1.5 °C 795.4 hPa Calm   -1607.7 km/h 61% 0 mm
18:51 7.9 °C 1.9 °C 795.4 hPa Calm   -1607.7 km/h 66% 0 mm
19:06 7.3 °C 1.8 °C 795.7 hPa Calm   -1607.7 km/h 68% 0 mm
19:21 6.6 °C 1.7 °C 795.7 hPa Calm   -1607.7 km/h 71% 0 mm
19:37 6 °C 1.7 °C 795.7 hPa Calm   -1607.7 km/h 74% 0 mm
19:52 5.4 °C 1.7 °C 795.7 hPa Calm   -1607.7 km/h 77% 0 mm
20:07 4.9 °C 1.2 °C 795.7 hPa Calm   -1607.7 km/h 77% 0 mm
20:22 4.3 °C 1.1 °C 796 hPa Calm   -1607.7 km/h 80% 0 mm
20:37 3.7 °C 0.9 °C 796 hPa Calm   -1607.7 km/h 82% 0 mm
20:53 3.4 °C 0.8 °C 796 hPa Calm   -1607.7 km/h 83% 0 mm
21:08 2.9 °C 0.4 °C 796 hPa Calm   -1607.7 km/h 84% 0 mm
21:23 2.5 °C 0.4 °C 796 hPa Calm   -1607.7 km/h 86% 0 mm
21:38 2.1 °C 0 °C 796.4 hPa Calm   -1607.7 km/h 86% 0 mm
21:53 2 °C 0.1 °C 796.4 hPa Calm   -1607.7 km/h 87% 0 mm
22:09 1.7 °C -0.1 °C 796.4 hPa Calm   -1607.7 km/h 88% 0 mm
22:24 1.4 °C -0.2 °C 796.4 hPa Calm   -1607.7 km/h 89% 0 mm
22:39 1.1 °C -0.3 °C 796.7 hPa Calm   -1607.7 km/h 90% 0 mm
22:54 1.1 °C -0.2 °C 796.4 hPa Calm   -1607.7 km/h 91% 0 mm
23:09 0.9 °C -0.4 °C 796.7 hPa Calm   -1607.7 km/h 91% 0 mm
23:25 0.7 °C -0.4 °C 796.7 hPa Calm   -1607.7 km/h 92% 0 mm
23:40 0.5 °C -0.7 °C 796.4 hPa Calm   -1607.7 km/h 92% 0 mm
23:55 0.3 °C -0.9 °C 796.4 hPa Calm   -1607.7 km/h 92% 0 mm
Big Bear CA Weather